sensor_id;sensor_type;location;lat;lon;timestamp;P1;durP1;ratioP1;P2;durP2;ratioP2
57822;SDS011;43650;48.064;20.624;2023-02-07T00:00:36;20.67;;;8.60;;
57822;SDS011;43650;48.064;20.624;2023-02-07T00:01:36;28.87;;;10.90;;
57822;SDS011;43650;48.064;20.624;2023-02-07T00:02:37;13.07;;;7.37;;
57822;SDS011;43650;48.064;20.624;2023-02-07T00:03:37;19.95;;;8.43;;
57822;SDS011;43650;48.064;20.624;2023-02-07T00:04:38;33.78;;;13.05;;
57822;SDS011;43650;48.064;20.624;2023-02-07T00:05:39;21.40;;;8.73;;
57822;SDS011;43650;48.064;20.624;2023-02-07T00:06:39;18.63;;;7.73;;
57822;SDS011;43650;48.064;20.624;2023-02-07T00:07:39;23.17;;;9.57;;
57822;SDS011;43650;48.064;20.624;2023-02-07T00:08:40;15.77;;;7.18;;
57822;SDS011;43650;48.064;20.624;2023-02-07T00:09:41;12.00;;;4.37;;
57822;SDS011;43650;48.064;20.624;2023-02-07T00:10:41;14.13;;;5.10;;
57822;SDS011;43650;48.064;20.624;2023-02-07T00:11:42;18.25;;;8.23;;
57822;SDS011;43650;48.064;20.624;2023-02-07T00:12:42;11.53;;;5.57;;
57822;SDS011;43650;48.064;20.624;2023-02-07T00:13:43;13.00;;;5.20;;
57822;SDS011;43650;48.064;20.624;2023-02-07T00:14:43;14.35;;;5.50;;
57822;SDS011;43650;48.064;20.624;2023-02-07T00:15:44;13.90;;;5.70;;
57822;SDS011;43650;48.064;20.624;2023-02-07T00:16:44;12.97;;;5.17;;
57822;SDS011;43650;48.064;20.624;2023-02-07T00:17:45;18.40;;;6.53;;
57822;SDS011;43650;48.064;20.624;2023-02-07T00:18:45;13.80;;;7.00;;
57822;SDS011;43650;48.064;20.624;2023-02-07T00:19:46;16.87;;;7.10;;
57822;SDS011;43650;48.064;20.624;2023-02-07T00:20:56;12.40;;;5.53;;
57822;SDS011;43650;48.064;20.624;2023-02-07T00:21:59;16.80;;;7.50;;
57822;SDS011;43650;48.064;20.624;2023-02-07T00:23:00;12.65;;;6.37;;
57822;SDS011;43650;48.064;20.624;2023-02-07T00:24:00;19.53;;;7.67;;
57822;SDS011;43650;48.064;20.624;2023-02-07T00:25:01;14.63;;;6.90;;
57822;SDS011;43650;48.064;20.624;2023-02-07T00:26:01;14.87;;;6.57;;
57822;SDS011;43650;48.064;20.624;2023-02-07T00:27:02;20.75;;;8.20;;
57822;SDS011;43650;48.064;20.624;2023-02-07T00:28:03;17.23;;;6.87;;
57822;SDS011;43650;48.064;20.624;2023-02-07T00:29:04;20.60;;;6.90;;
57822;SDS011;43650;48.064;20.624;2023-02-07T00:30:04;13.30;;;5.97;;
57822;SDS011;43650;48.064;20.624;2023-02-07T00:31:06;8.77;;;4.50;;
57822;SDS011;43650;48.064;20.624;2023-02-07T00:32:09;9.43;;;4.62;;
57822;SDS011;43650;48.064;20.624;2023-02-07T00:33:09;9.40;;;4.85;;
57822;SDS011;43650;48.064;20.624;2023-02-07T00:34:10;16.20;;;7.30;;
57822;SDS011;43650;48.064;20.624;2023-02-07T00:35:10;31.62;;;11.77;;
57822;SDS011;43650;48.064;20.624;2023-02-07T00:36:12;37.97;;;15.00;;
57822;SDS011;43650;48.064;20.624;2023-02-07T00:37:15;60.95;;;22.62;;
57822;SDS011;43650;48.064;20.624;2023-02-07T00:38:15;23.10;;;10.23;;
57822;SDS011;43650;48.064;20.624;2023-02-07T00:39:16;19.60;;;8.13;;
57822;SDS011;43650;48.064;20.624;2023-02-07T00:40:17;12.32;;;5.80;;
57822;SDS011;43650;48.064;20.624;2023-02-07T00:41:18;13.48;;;6.03;;
57822;SDS011;43650;48.064;20.624;2023-02-07T00:42:19;17.08;;;6.20;;
57822;SDS011;43650;48.064;20.624;2023-02-07T00:43:19;19.03;;;7.27;;
57822;SDS011;43650;48.064;20.624;2023-02-07T00:44:20;29.90;;;13.47;;
57822;SDS011;43650;48.064;20.624;2023-02-07T00:45:20;15.13;;;6.47;;
57822;SDS011;43650;48.064;20.624;2023-02-07T00:46:21;16.07;;;6.40;;
57822;SDS011;43650;48.064;20.624;2023-02-07T00:47:21;13.70;;;6.67;;
57822;SDS011;43650;48.064;20.624;2023-02-07T00:48:21;12.93;;;5.77;;
57822;SDS011;43650;48.064;20.624;2023-02-07T00:49:22;14.70;;;5.90;;
57822;SDS011;43650;48.064;20.624;2023-02-07T00:50:22;13.60;;;6.97;;
57822;SDS011;43650;48.064;20.624;2023-02-07T00:51:23;14.40;;;7.47;;
57822;SDS011;43650;48.064;20.624;2023-02-07T00:53:25;14.10;;;5.40;;
57822;SDS011;43650;48.064;20.624;2023-02-07T00:54:26;18.52;;;6.03;;
57822;SDS011;43650;48.064;20.624;2023-02-07T00:55:27;14.20;;;4.13;;
57822;SDS011;43650;48.064;20.624;2023-02-07T00:56:28;17.77;;;5.73;;
57822;SDS011;43650;48.064;20.624;2023-02-07T00:58:29;9.35;;;5.18;;
57822;SDS011;43650;48.064;20.624;2023-02-07T00:59:29;11.27;;;5.47;;
57822;SDS011;43650;48.064;20.624;2023-02-07T01:00:30;16.40;;;5.67;;
57822;SDS011;43650;48.064;20.624;2023-02-07T01:01:30;13.17;;;5.60;;
57822;SDS011;43650;48.064;20.624;2023-02-07T01:02:31;14.15;;;6.07;;
57822;SDS011;43650;48.064;20.624;2023-02-07T01:03:31;10.80;;;4.90;;
57822;SDS011;43650;48.064;20.624;2023-02-07T01:04:32;13.07;;;5.75;;
57822;SDS011;43650;48.064;20.624;2023-02-07T01:05:32;13.27;;;5.77;;
57822;SDS011;43650;48.064;20.624;2023-02-07T01:06:33;16.67;;;7.25;;
57822;SDS011;43650;48.064;20.624;2023-02-07T01:07:36;15.23;;;6.15;;
57822;SDS011;43650;48.064;20.624;2023-02-07T01:08:36;10.17;;;5.03;;
57822;SDS011;43650;48.064;20.624;2023-02-07T01:09:37;15.05;;;6.57;;
57822;SDS011;43650;48.064;20.624;2023-02-07T01:10:39;10.63;;;6.00;;
57822;SDS011;43650;48.064;20.624;2023-02-07T01:11:40;14.77;;;4.55;;
57822;SDS011;43650;48.064;20.624;2023-02-07T01:12:40;15.80;;;6.10;;
57822;SDS011;43650;48.064;20.624;2023-02-07T01:13:42;20.33;;;6.25;;
57822;SDS011;43650;48.064;20.624;2023-02-07T01:14:43;12.27;;;5.32;;
57822;SDS011;43650;48.064;20.624;2023-02-07T01:15:44;12.03;;;5.17;;
57822;SDS011;43650;48.064;20.624;2023-02-07T01:16:45;20.00;;;6.43;;
57822;SDS011;43650;48.064;20.624;2023-02-07T01:17:45;11.80;;;4.93;;
57822;SDS011;43650;48.064;20.624;2023-02-07T01:18:46;14.40;;;5.63;;
57822;SDS011;43650;48.064;20.624;2023-02-07T01:19:47;12.20;;;5.75;;
57822;SDS011;43650;48.064;20.624;2023-02-07T01:20:47;15.83;;;6.03;;
57822;SDS011;43650;48.064;20.624;2023-02-07T01:21:48;18.53;;;6.33;;
57822;SDS011;43650;48.064;20.624;2023-02-07T01:22:48;15.37;;;5.90;;
57822;SDS011;43650;48.064;20.624;2023-02-07T01:23:49;12.70;;;5.60;;
57822;SDS011;43650;48.064;20.624;2023-02-07T01:24:51;14.43;;;5.67;;
57822;SDS011;43650;48.064;20.624;2023-02-07T01:25:52;10.20;;;3.95;;
57822;SDS011;43650;48.064;20.624;2023-02-07T01:26:52;11.30;;;4.40;;
57822;SDS011;43650;48.064;20.624;2023-02-07T01:27:53;11.17;;;4.10;;
57822;SDS011;43650;48.064;20.624;2023-02-07T01:28:54;7.57;;;3.97;;
57822;SDS011;43650;48.064;20.624;2023-02-07T01:30:55;18.67;;;5.43;;
57822;SDS011;43650;48.064;20.624;2023-02-07T01:31:55;14.43;;;6.73;;
57822;SDS011;43650;48.064;20.624;2023-02-07T01:32:56;9.60;;;4.27;;
57822;SDS011;43650;48.064;20.624;2023-02-07T01:33:57;12.13;;;4.43;;
57822;SDS011;43650;48.064;20.624;2023-02-07T01:34:58;11.45;;;4.68;;
57822;SDS011;43650;48.064;20.624;2023-02-07T01:35:59;11.12;;;5.12;;
57822;SDS011;43650;48.064;20.624;2023-02-07T01:36:59;16.17;;;4.97;;
57822;SDS011;43650;48.064;20.624;2023-02-07T01:38:00;12.03;;;5.20;;
57822;SDS011;43650;48.064;20.624;2023-02-07T01:40:03;11.75;;;4.85;;
57822;SDS011;43650;48.064;20.624;2023-02-07T01:41:03;8.85;;;3.95;;
57822;SDS011;43650;48.064;20.624;2023-02-07T01:42:04;15.88;;;5.07;;
57822;SDS011;43650;48.064;20.624;2023-02-07T01:43:05;9.03;;;5.27;;
57822;SDS011;43650;48.064;20.624;2023-02-07T01:44:06;11.68;;;5.37;;
57822;SDS011;43650;48.064;20.624;2023-02-07T01:45:29;9.45;;;4.47;;
57822;SDS011;43650;48.064;20.624;2023-02-07T01:46:34;9.85;;;4.03;;
57822;SDS011;43650;48.064;20.624;2023-02-07T01:47:35;12.75;;;5.07;;
57822;SDS011;43650;48.064;20.624;2023-02-07T01:48:36;8.93;;;4.45;;
57822;SDS011;43650;48.064;20.624;2023-02-07T01:49:37;8.57;;;4.07;;
57822;SDS011;43650;48.064;20.624;2023-02-07T01:50:38;6.43;;;3.60;;
57822;SDS011;43650;48.064;20.624;2023-02-07T01:51:45;8.23;;;4.15;;
57822;SDS011;43650;48.064;20.624;2023-02-07T01:52:47;14.98;;;4.20;;
57822;SDS011;43650;48.064;20.624;2023-02-07T01:53:48;11.98;;;4.82;;
57822;SDS011;43650;48.064;20.624;2023-02-07T01:54:50;12.00;;;4.72;;
57822;SDS011;43650;48.064;20.624;2023-02-07T01:55:53;9.60;;;3.95;;
57822;SDS011;43650;48.064;20.624;2023-02-07T01:56:56;5.90;;;3.50;;
57822;SDS011;43650;48.064;20.624;2023-02-07T01:57:58;13.02;;;5.18;;
57822;SDS011;43650;48.064;20.624;2023-02-07T01:59:00;11.75;;;4.85;;
57822;SDS011;43650;48.064;20.624;2023-02-07T02:00:03;12.07;;;4.78;;
57822;SDS011;43650;48.064;20.624;2023-02-07T02:01:05;9.00;;;4.12;;
57822;SDS011;43650;48.064;20.624;2023-02-07T02:02:13;8.80;;;4.18;;
57822;SDS011;43650;48.064;20.624;2023-02-07T02:03:15;10.18;;;3.90;;
57822;SDS011;43650;48.064;20.624;2023-02-07T02:04:16;12.67;;;4.47;;
57822;SDS011;43650;48.064;20.624;2023-02-07T02:05:16;9.18;;;3.78;;
57822;SDS011;43650;48.064;20.624;2023-02-07T02:06:17;12.48;;;4.28;;
57822;SDS011;43650;48.064;20.624;2023-02-07T02:07:19;13.90;;;4.22;;
57822;SDS011;43650;48.064;20.624;2023-02-07T02:08:21;8.68;;;4.12;;
57822;SDS011;43650;48.064;20.624;2023-02-07T02:09:22;8.82;;;4.75;;
57822;SDS011;43650;48.064;20.624;2023-02-07T02:10:23;8.75;;;4.18;;
57822;SDS011;43650;48.064;20.624;2023-02-07T02:12:46;12.43;;;4.68;;
57822;SDS011;43650;48.064;20.624;2023-02-07T02:26:40;13.02;;;4.87;;
57822;SDS011;43650;48.064;20.624;2023-02-07T02:30:24;12.30;;;3.97;;
57822;SDS011;43650;48.064;20.624;2023-02-07T02:33:06;10.70;;;4.45;;
57822;SDS011;43650;48.064;20.624;2023-02-07T02:34:30;10.52;;;4.07;;
57822;SDS011;43650;48.064;20.624;2023-02-07T02:38:14;8.43;;;3.67;;
57822;SDS011;43650;48.064;20.624;2023-02-07T02:41:00;7.22;;;3.15;;
57822;SDS011;43650;48.064;20.624;2023-02-07T02:43:46;7.03;;;3.35;;
57822;SDS011;43650;48.064;20.624;2023-02-07T02:46:01;9.95;;;4.30;;
57822;SDS011;43650;48.064;20.624;2023-02-07T02:47:05;8.32;;;4.10;;
57822;SDS011;43650;48.064;20.624;2023-02-07T02:48:07;6.93;;;3.05;;
57822;SDS011;43650;48.064;20.624;2023-02-07T02:49:10;10.13;;;3.58;;
57822;SDS011;43650;48.064;20.624;2023-02-07T02:50:14;6.43;;;3.10;;
57822;SDS011;43650;48.064;20.624;2023-02-07T02:51:17;7.65;;;4.28;;
57822;SDS011;43650;48.064;20.624;2023-02-07T02:52:18;7.60;;;2.97;;
57822;SDS011;43650;48.064;20.624;2023-02-07T02:53:18;6.43;;;3.93;;
57822;SDS011;43650;48.064;20.624;2023-02-07T02:54:52;10.37;;;4.43;;
57822;SDS011;43650;48.064;20.624;2023-02-07T02:55:56;6.47;;;3.08;;
57822;SDS011;43650;48.064;20.624;2023-02-07T02:58:54;7.72;;;2.80;;
57822;SDS011;43650;48.064;20.624;2023-02-07T03:06:18;7.35;;;2.67;;
57822;SDS011;43650;48.064;20.624;2023-02-07T03:08:45;5.85;;;2.80;;
57822;SDS011;43650;48.064;20.624;2023-02-07T03:11:10;10.23;;;3.42;;
57822;SDS011;43650;48.064;20.624;2023-02-07T03:12:15;8.85;;;3.17;;
57822;SDS011;43650;48.064;20.624;2023-02-07T03:14:44;7.70;;;3.00;;
57822;SDS011;43650;48.064;20.624;2023-02-07T03:17:07;8.88;;;3.05;;
57822;SDS011;43650;48.064;20.624;2023-02-07T03:18:18;7.53;;;3.87;;
57822;SDS011;43650;48.064;20.624;2023-02-07T03:19:21;8.05;;;3.53;;
57822;SDS011;43650;48.064;20.624;2023-02-07T03:20:32;7.20;;;3.85;;
57822;SDS011;43650;48.064;20.624;2023-02-07T03:21:55;6.47;;;3.40;;
57822;SDS011;43650;48.064;20.624;2023-02-07T03:22:57;7.55;;;4.32;;
57822;SDS011;43650;48.064;20.624;2023-02-07T03:24:00;9.60;;;3.65;;
57822;SDS011;43650;48.064;20.624;2023-02-07T03:25:10;17.90;;;3.05;;
57822;SDS011;43650;48.064;20.624;2023-02-07T03:26:14;5.80;;;3.00;;
57822;SDS011;43650;48.064;20.624;2023-02-07T03:27:15;6.32;;;2.80;;
57822;SDS011;43650;48.064;20.624;2023-02-07T03:28:18;9.38;;;3.45;;
57822;SDS011;43650;48.064;20.624;2023-02-07T03:29:19;6.07;;;3.35;;
57822;SDS011;43650;48.064;20.624;2023-02-07T03:30:20;9.23;;;3.03;;
57822;SDS011;43650;48.064;20.624;2023-02-07T03:32:25;4.20;;;2.92;;
57822;SDS011;43650;48.064;20.624;2023-02-07T03:33:29;8.90;;;4.22;;
57822;SDS011;43650;48.064;20.624;2023-02-07T03:35:32;6.43;;;2.77;;
57822;SDS011;43650;48.064;20.624;2023-02-07T03:36:38;13.35;;;2.67;;
57822;SDS011;43650;48.064;20.624;2023-02-07T03:37:42;13.57;;;3.47;;
57822;SDS011;43650;48.064;20.624;2023-02-07T03:38:48;11.73;;;2.90;;
57822;SDS011;43650;48.064;20.624;2023-02-07T03:39:49;9.43;;;3.20;;
57822;SDS011;43650;48.064;20.624;2023-02-07T03:40:51;7.40;;;3.00;;
57822;SDS011;43650;48.064;20.624;2023-02-07T03:41:56;5.85;;;3.12;;
57822;SDS011;43650;48.064;20.624;2023-02-07T03:43:02;8.07;;;2.87;;
57822;SDS011;43650;48.064;20.624;2023-02-07T03:44:05;6.35;;;3.10;;
57822;SDS011;43650;48.064;20.624;2023-02-07T03:45:08;5.18;;;2.70;;
57822;SDS011;43650;48.064;20.624;2023-02-07T03:46:11;6.12;;;2.90;;
57822;SDS011;43650;48.064;20.624;2023-02-07T03:47:13;11.18;;;3.47;;
57822;SDS011;43650;48.064;20.624;2023-02-07T03:48:16;8.23;;;3.47;;
57822;SDS011;43650;48.064;20.624;2023-02-07T03:49:16;7.37;;;3.00;;
57822;SDS011;43650;48.064;20.624;2023-02-07T03:50:17;6.70;;;2.97;;
57822;SDS011;43650;48.064;20.624;2023-02-07T03:51:17;5.37;;;2.90;;
57822;SDS011;43650;48.064;20.624;2023-02-07T03:52:18;7.00;;;2.23;;
57822;SDS011;43650;48.064;20.624;2023-02-07T03:53:19;7.77;;;3.23;;
57822;SDS011;43650;48.064;20.624;2023-02-07T03:54:19;8.75;;;3.37;;
57822;SDS011;43650;48.064;20.624;2023-02-07T03:55:20;6.80;;;2.97;;
57822;SDS011;43650;48.064;20.624;2023-02-07T03:56:20;8.07;;;3.33;;
57822;SDS011;43650;48.064;20.624;2023-02-07T03:57:20;9.27;;;3.20;;
57822;SDS011;43650;48.064;20.624;2023-02-07T03:58:21;6.30;;;2.93;;
57822;SDS011;43650;48.064;20.624;2023-02-07T03:59:21;6.83;;;3.27;;
57822;SDS011;43650;48.064;20.624;2023-02-07T04:00:22;11.07;;;4.37;;
57822;SDS011;43650;48.064;20.624;2023-02-07T04:01:22;11.12;;;3.42;;
57822;SDS011;43650;48.064;20.624;2023-02-07T04:02:23;9.57;;;3.27;;
57822;SDS011;43650;48.064;20.624;2023-02-07T04:03:23;4.77;;;2.90;;
57822;SDS011;43650;48.064;20.624;2023-02-07T04:04:24;5.63;;;3.00;;
57822;SDS011;43650;48.064;20.624;2023-02-07T04:05:24;10.53;;;3.50;;
57822;SDS011;43650;48.064;20.624;2023-02-07T04:06:25;9.23;;;3.62;;
57822;SDS011;43650;48.064;20.624;2023-02-07T04:07:25;10.43;;;3.60;;
57822;SDS011;43650;48.064;20.624;2023-02-07T04:08:26;9.90;;;3.80;;
57822;SDS011;43650;48.064;20.624;2023-02-07T04:09:26;8.43;;;3.13;;
57822;SDS011;43650;48.064;20.624;2023-02-07T04:10:27;8.53;;;4.03;;
57822;SDS011;43650;48.064;20.624;2023-02-07T04:11:27;6.47;;;3.63;;
57822;SDS011;43650;48.064;20.624;2023-02-07T04:12:28;8.23;;;3.60;;
57822;SDS011;43650;48.064;20.624;2023-02-07T04:13:31;7.90;;;3.90;;
57822;SDS011;43650;48.064;20.624;2023-02-07T04:14:32;10.03;;;3.40;;
57822;SDS011;43650;48.064;20.624;2023-02-07T04:15:32;5.78;;;3.05;;
57822;SDS011;43650;48.064;20.624;2023-02-07T04:16:33;6.10;;;2.53;;
57822;SDS011;43650;48.064;20.624;2023-02-07T04:17:33;9.07;;;2.60;;
57822;SDS011;43650;48.064;20.624;2023-02-07T04:18:34;5.82;;;3.45;;
57822;SDS011;43650;48.064;20.624;2023-02-07T04:19:34;7.53;;;3.53;;
57822;SDS011;43650;48.064;20.624;2023-02-07T04:20:35;8.60;;;3.40;;
57822;SDS011;43650;48.064;20.624;2023-02-07T04:21:35;7.87;;;3.37;;
57822;SDS011;43650;48.064;20.624;2023-02-07T04:22:36;12.90;;;3.93;;
57822;SDS011;43650;48.064;20.624;2023-02-07T04:23:36;10.43;;;3.03;;
57822;SDS011;43650;48.064;20.624;2023-02-07T04:24:36;6.10;;;3.20;;
57822;SDS011;43650;48.064;20.624;2023-02-07T04:25:37;4.63;;;2.60;;
57822;SDS011;43650;48.064;20.624;2023-02-07T04:26:37;8.70;;;3.27;;
57822;SDS011;43650;48.064;20.624;2023-02-07T04:27:38;10.00;;;4.23;;
57822;SDS011;43650;48.064;20.624;2023-02-07T04:28:38;8.77;;;3.77;;
57822;SDS011;43650;48.064;20.624;2023-02-07T04:29:39;12.10;;;3.93;;
57822;SDS011;43650;48.064;20.624;2023-02-07T04:30:39;6.77;;;3.23;;
57822;SDS011;43650;48.064;20.624;2023-02-07T04:31:39;8.07;;;4.33;;
57822;SDS011;43650;48.064;20.624;2023-02-07T04:32:41;13.95;;;3.78;;
57822;SDS011;43650;48.064;20.624;2023-02-07T04:33:41;6.47;;;2.97;;
57822;SDS011;43650;48.064;20.624;2023-02-07T04:34:42;7.82;;;3.90;;
57822;SDS011;43650;48.064;20.624;2023-02-07T04:35:43;6.70;;;3.03;;
57822;SDS011;43650;48.064;20.624;2023-02-07T04:36:43;6.20;;;3.10;;
57822;SDS011;43650;48.064;20.624;2023-02-07T04:37:44;11.13;;;3.23;;
57822;SDS011;43650;48.064;20.624;2023-02-07T04:38:44;10.40;;;3.93;;
57822;SDS011;43650;48.064;20.624;2023-02-07T04:39:45;6.43;;;2.43;;
57822;SDS011;43650;48.064;20.624;2023-02-07T04:40:45;10.52;;;3.65;;
57822;SDS011;43650;48.064;20.624;2023-02-07T04:41:46;5.30;;;2.83;;
57822;SDS011;43650;48.064;20.624;2023-02-07T04:42:46;5.10;;;2.87;;
57822;SDS011;43650;48.064;20.624;2023-02-07T04:43:47;7.53;;;3.13;;
57822;SDS011;43650;48.064;20.624;2023-02-07T04:44:47;8.43;;;3.57;;
57822;SDS011;43650;48.064;20.624;2023-02-07T04:45:48;9.97;;;2.77;;
57822;SDS011;43650;48.064;20.624;2023-02-07T04:46:48;8.33;;;3.93;;
57822;SDS011;43650;48.064;20.624;2023-02-07T04:47:49;6.50;;;2.77;;
57822;SDS011;43650;48.064;20.624;2023-02-07T04:48:49;7.57;;;3.45;;
57822;SDS011;43650;48.064;20.624;2023-02-07T04:49:50;9.87;;;3.63;;
57822;SDS011;43650;48.064;20.624;2023-02-07T04:50:50;10.23;;;3.77;;
57822;SDS011;43650;48.064;20.624;2023-02-07T04:51:51;12.10;;;3.10;;
57822;SDS011;43650;48.064;20.624;2023-02-07T04:52:51;9.43;;;4.23;;
57822;SDS011;43650;48.064;20.624;2023-02-07T04:53:51;21.00;;;6.30;;
57822;SDS011;43650;48.064;20.624;2023-02-07T04:54:52;21.33;;;6.70;;
57822;SDS011;43650;48.064;20.624;2023-02-07T04:55:52;29.90;;;9.43;;
57822;SDS011;43650;48.064;20.624;2023-02-07T04:56:53;19.37;;;7.55;;
57822;SDS011;43650;48.064;20.624;2023-02-07T04:57:53;13.73;;;5.33;;
57822;SDS011;43650;48.064;20.624;2023-02-07T04:58:54;8.47;;;4.20;;
57822;SDS011;43650;48.064;20.624;2023-02-07T04:59:54;9.53;;;4.20;;
57822;SDS011;43650;48.064;20.624;2023-02-07T05:00:55;12.00;;;3.97;;
57822;SDS011;43650;48.064;20.624;2023-02-07T05:01:55;12.83;;;4.17;;
57822;SDS011;43650;48.064;20.624;2023-02-07T05:02:56;6.97;;;3.53;;
57822;SDS011;43650;48.064;20.624;2023-02-07T05:03:56;8.30;;;3.67;;
57822;SDS011;43650;48.064;20.624;2023-02-07T05:04:56;12.07;;;5.23;;
57822;SDS011;43650;48.064;20.624;2023-02-07T05:05:57;13.83;;;5.27;;
57822;SDS011;43650;48.064;20.624;2023-02-07T05:06:57;12.97;;;4.83;;
57822;SDS011;43650;48.064;20.624;2023-02-07T05:07:58;18.00;;;5.67;;
57822;SDS011;43650;48.064;20.624;2023-02-07T05:08:58;11.37;;;5.07;;
57822;SDS011;43650;48.064;20.624;2023-02-07T05:09:59;17.17;;;7.53;;
57822;SDS011;43650;48.064;20.624;2023-02-07T05:10:59;13.37;;;6.90;;
57822;SDS011;43650;48.064;20.624;2023-02-07T05:12:00;22.80;;;6.83;;
57822;SDS011;43650;48.064;20.624;2023-02-07T05:13:00;19.77;;;8.90;;
57822;SDS011;43650;48.064;20.624;2023-02-07T05:14:01;24.35;;;11.02;;
57822;SDS011;43650;48.064;20.624;2023-02-07T05:15:01;23.97;;;9.57;;
57822;SDS011;43650;48.064;20.624;2023-02-07T05:16:02;22.53;;;9.57;;
57822;SDS011;43650;48.064;20.624;2023-02-07T05:18:03;17.30;;;6.18;;
57822;SDS011;43650;48.064;20.624;2023-02-07T05:19:05;18.40;;;7.15;;
57822;SDS011;43650;48.064;20.624;2023-02-07T05:20:05;23.57;;;7.30;;
57822;SDS011;43650;48.064;20.624;2023-02-07T05:21:06;23.25;;;8.38;;
57822;SDS011;43650;48.064;20.624;2023-02-07T05:22:07;15.80;;;8.30;;
57822;SDS011;43650;48.064;20.624;2023-02-07T05:23:07;20.30;;;7.83;;
57822;SDS011;43650;48.064;20.624;2023-02-07T05:24:08;24.90;;;7.95;;
57822;SDS011;43650;48.064;20.624;2023-02-07T05:25:08;20.00;;;7.63;;
57822;SDS011;43650;48.064;20.624;2023-02-07T05:26:09;16.90;;;7.33;;
57822;SDS011;43650;48.064;20.624;2023-02-07T05:27:09;26.50;;;8.30;;
57822;SDS011;43650;48.064;20.624;2023-02-07T05:28:12;19.35;;;9.43;;
57822;SDS011;43650;48.064;20.624;2023-02-07T05:29:13;35.43;;;11.23;;
57822;SDS011;43650;48.064;20.624;2023-02-07T05:30:13;24.63;;;9.50;;
57822;SDS011;43650;48.064;20.624;2023-02-07T05:31:14;19.87;;;9.70;;
57822;SDS011;43650;48.064;20.624;2023-02-07T05:32:14;19.93;;;9.63;;
57822;SDS011;43650;48.064;20.624;2023-02-07T05:33:33;46.22;;;18.75;;
57822;SDS011;43650;48.064;20.624;2023-02-07T05:34:34;32.00;;;13.73;;
57822;SDS011;43650;48.064;20.624;2023-02-07T05:35:35;26.77;;;11.38;;
57822;SDS011;43650;48.064;20.624;2023-02-07T05:36:37;39.58;;;15.40;;
57822;SDS011;43650;48.064;20.624;2023-02-07T05:37:38;33.57;;;12.57;;
57822;SDS011;43650;48.064;20.624;2023-02-07T05:38:38;26.13;;;10.90;;
57822;SDS011;43650;48.064;20.624;2023-02-07T05:39:39;25.13;;;11.83;;
57822;SDS011;43650;48.064;20.624;2023-02-07T05:40:40;20.40;;;10.07;;
57822;SDS011;43650;48.064;20.624;2023-02-07T05:41:41;22.65;;;10.77;;
57822;SDS011;43650;48.064;20.624;2023-02-07T05:42:41;31.50;;;12.90;;
57822;SDS011;43650;48.064;20.624;2023-02-07T05:43:41;29.67;;;11.70;;
57822;SDS011;43650;48.064;20.624;2023-02-07T05:44:42;28.80;;;11.57;;
57822;SDS011;43650;48.064;20.624;2023-02-07T05:45:43;24.45;;;10.48;;
57822;SDS011;43650;48.064;20.624;2023-02-07T05:46:44;26.90;;;10.15;;
57822;SDS011;43650;48.064;20.624;2023-02-07T05:47:45;20.53;;;9.90;;
57822;SDS011;43650;48.064;20.624;2023-02-07T05:48:45;141.87;;;46.20;;
57822;SDS011;43650;48.064;20.624;2023-02-07T05:49:45;50.83;;;17.90;;
57822;SDS011;43650;48.064;20.624;2023-02-07T05:50:46;21.70;;;10.27;;
57822;SDS011;43650;48.064;20.624;2023-02-07T05:51:46;20.10;;;7.87;;
57822;SDS011;43650;48.064;20.624;2023-02-07T05:52:47;22.13;;;9.73;;
57822;SDS011;43650;48.064;20.624;2023-02-07T05:53:48;20.85;;;9.35;;
57822;SDS011;43650;48.064;20.624;2023-02-07T05:54:48;22.50;;;8.40;;
57822;SDS011;43650;48.064;20.624;2023-02-07T05:55:52;19.43;;;7.97;;
57822;SDS011;43650;48.064;20.624;2023-02-07T05:56:52;18.98;;;8.38;;
57822;SDS011;43650;48.064;20.624;2023-02-07T05:57:53;16.87;;;7.73;;
57822;SDS011;43650;48.064;20.624;2023-02-07T05:58:53;14.83;;;8.10;;
57822;SDS011;43650;48.064;20.624;2023-02-07T05:59:53;17.17;;;7.87;;
57822;SDS011;43650;48.064;20.624;2023-02-07T06:00:54;58.60;;;25.50;;
57822;SDS011;43650;48.064;20.624;2023-02-07T06:01:55;27.20;;;11.60;;
57822;SDS011;43650;48.064;20.624;2023-02-07T06:02:55;44.03;;;15.23;;
57822;SDS011;43650;48.064;20.624;2023-02-07T06:03:55;69.97;;;24.07;;
57822;SDS011;43650;48.064;20.624;2023-02-07T06:04:56;52.10;;;16.43;;
57822;SDS011;43650;48.064;20.624;2023-02-07T06:05:56;41.80;;;17.50;;
57822;SDS011;43650;48.064;20.624;2023-02-07T06:06:57;42.37;;;16.07;;
57822;SDS011;43650;48.064;20.624;2023-02-07T06:07:57;33.23;;;14.77;;
57822;SDS011;43650;48.064;20.624;2023-02-07T06:08:58;24.15;;;11.52;;
57822;SDS011;43650;48.064;20.624;2023-02-07T06:09:58;50.67;;;14.83;;
57822;SDS011;43650;48.064;20.624;2023-02-07T06:10:59;36.40;;;13.80;;
57822;SDS011;43650;48.064;20.624;2023-02-07T06:11:59;37.53;;;14.87;;
57822;SDS011;43650;48.064;20.624;2023-02-07T06:13:00;39.70;;;15.03;;
57822;SDS011;43650;48.064;20.624;2023-02-07T06:14:00;25.77;;;12.17;;
57822;SDS011;43650;48.064;20.624;2023-02-07T06:15:01;27.37;;;12.87;;
57822;SDS011;43650;48.064;20.624;2023-02-07T06:16:02;28.75;;;12.37;;
57822;SDS011;43650;48.064;20.624;2023-02-07T06:17:02;18.93;;;10.50;;
57822;SDS011;43650;48.064;20.624;2023-02-07T06:18:03;30.13;;;13.67;;
57822;SDS011;43650;48.064;20.624;2023-02-07T06:19:03;19.17;;;10.53;;
57822;SDS011;43650;48.064;20.624;2023-02-07T06:20:04;22.60;;;10.13;;
57822;SDS011;43650;48.064;20.624;2023-02-07T06:21:05;28.73;;;11.43;;
57822;SDS011;43650;48.064;20.624;2023-02-07T06:22:05;28.05;;;11.55;;
57822;SDS011;43650;48.064;20.624;2023-02-07T06:23:06;29.50;;;11.07;;
57822;SDS011;43650;48.064;20.624;2023-02-07T06:24:06;19.50;;;9.67;;
57822;SDS011;43650;48.064;20.624;2023-02-07T06:25:07;26.45;;;9.82;;
57822;SDS011;43650;48.064;20.624;2023-02-07T06:26:10;18.17;;;9.60;;
57822;SDS011;43650;48.064;20.624;2023-02-07T06:27:11;31.67;;;12.63;;
57822;SDS011;43650;48.064;20.624;2023-02-07T06:28:12;36.27;;;14.43;;
57822;SDS011;43650;48.064;20.624;2023-02-07T06:29:12;47.97;;;13.70;;
57822;SDS011;43650;48.064;20.624;2023-02-07T06:30:13;106.00;;;34.20;;
57822;SDS011;43650;48.064;20.624;2023-02-07T06:31:13;179.50;;;51.77;;
57822;SDS011;43650;48.064;20.624;2023-02-07T06:32:14;182.80;;;50.97;;
57822;SDS011;43650;48.064;20.624;2023-02-07T06:33:14;154.70;;;50.70;;
57822;SDS011;43650;48.064;20.624;2023-02-07T06:34:15;115.90;;;33.60;;
57822;SDS011;43650;48.064;20.624;2023-02-07T06:35:15;91.00;;;26.93;;
57822;SDS011;43650;48.064;20.624;2023-02-07T06:36:16;41.35;;;17.35;;
57822;SDS011;43650;48.064;20.624;2023-02-07T06:37:16;87.87;;;27.23;;
57822;SDS011;43650;48.064;20.624;2023-02-07T06:38:17;28.00;;;12.83;;
57822;SDS011;43650;48.064;20.624;2023-02-07T06:39:17;30.42;;;11.88;;
57822;SDS011;43650;48.064;20.624;2023-02-07T06:40:18;19.03;;;9.83;;
57822;SDS011;43650;48.064;20.624;2023-02-07T06:41:18;31.47;;;13.40;;
57822;SDS011;43650;48.064;20.624;2023-02-07T06:42:19;72.22;;;30.98;;
57822;SDS011;43650;48.064;20.624;2023-02-07T06:43:20;57.50;;;22.73;;
57822;SDS011;43650;48.064;20.624;2023-02-07T06:44:20;56.33;;;20.50;;
57822;SDS011;43650;48.064;20.624;2023-02-07T06:45:21;67.57;;;26.07;;
57822;SDS011;43650;48.064;20.624;2023-02-07T06:46:21;70.03;;;29.70;;
57822;SDS011;43650;48.064;20.624;2023-02-07T06:47:21;39.40;;;16.60;;